createdAt,value
2023-01-29T00:00:19.275Z,32.38
2023-01-29T00:02:48.355Z,34.78
2023-01-29T00:05:27.556Z,33.10
2023-01-29T00:07:58.179Z,31.95
2023-01-29T00:10:27.898Z,29.95
2023-01-29T00:12:56.824Z,29.98
2023-01-29T00:15:25.760Z,29.42
2023-01-29T00:17:54.405Z,33.47
2023-01-29T00:20:23.118Z,27.90
2023-01-29T00:22:51.857Z,32.05
2023-01-29T00:25:20.483Z,30.20
2023-01-29T00:27:49.186Z,30.60
2023-01-29T00:30:20.402Z,30.33
2023-01-29T00:32:49.324Z,30.98
2023-01-29T00:35:18.076Z,31.73
2023-01-29T00:37:46.713Z,34.80
2023-01-29T00:40:15.852Z,30.88
2023-01-29T00:43:06.154Z,30.60
2023-01-29T00:45:35.256Z,30.40
2023-01-29T00:48:04.891Z,27.60
2023-01-29T00:50:34.033Z,29.48
2023-01-29T00:53:02.763Z,26.73
2023-01-29T00:55:31.478Z,26.13
2023-01-29T00:58:00.180Z,28.27
2023-01-29T01:00:28.856Z,27.35
2023-01-29T01:03:12.928Z,28.30
2023-01-29T01:05:43.635Z,24.85
2023-01-29T01:08:32.325Z,33.90
2023-01-29T01:11:04.990Z,28.95
2023-01-29T01:13:44.429Z,25.25
2023-01-29T01:16:16.297Z,24.08
2023-01-29T01:18:45.096Z,24.88
2023-01-29T01:21:13.829Z,23.55
2023-01-29T01:23:44.723Z,25.23
2023-01-29T01:26:13.438Z,25.33
2023-01-29T01:28:42.078Z,24.30
2023-01-29T01:31:12.815Z,24.40
2023-01-29T01:33:42.489Z,23.77
2023-01-29T01:36:19.538Z,23.98
2023-01-29T01:38:48.401Z,22.80
2023-01-29T01:41:20.144Z,22.63
2023-01-29T01:43:56.769Z,23.90
2023-01-29T01:46:32.294Z,27.92
2023-01-29T01:49:05.522Z,26.10
2023-01-29T01:51:37.311Z,24.00
2023-01-29T01:54:13.443Z,23.70
2023-01-29T01:56:46.139Z,22.58
2023-01-29T01:59:29.092Z,22.95
2023-01-29T02:01:57.908Z,23.02
2023-01-29T02:04:47.965Z,23.88
2023-01-29T02:07:36.890Z,21.95
2023-01-29T02:10:17.036Z,24.45
2023-01-29T02:12:47.019Z,22.42
2023-01-29T02:15:15.732Z,23.45
2023-01-29T02:17:49.351Z,23.73
2023-01-29T02:20:25.535Z,22.17
2023-01-29T02:22:57.500Z,23.33
2023-01-29T02:25:31.566Z,21.08
2023-01-29T02:28:15.513Z,21.67
2023-01-29T02:30:49.491Z,21.70
2023-01-29T02:33:57.782Z,21.08
2023-01-29T02:36:42.830Z,22.27
2023-01-29T02:39:43.555Z,21.92
2023-01-29T02:42:20.595Z,20.48
2023-01-29T02:44:58.153Z,20.30
2023-01-29T02:47:37.379Z,18.77
2023-01-29T02:50:09.095Z,19.83
2023-01-29T02:52:45.661Z,21.17
2023-01-29T02:55:19.813Z,20.42
2023-01-29T02:57:50.768Z,19.33
2023-01-29T03:00:22.143Z,20.08
2023-01-29T03:03:02.452Z,21.23
2023-01-29T03:05:38.333Z,19.13
2023-01-29T03:08:11.742Z,20.80
2023-01-29T03:11:04.080Z,19.33
2023-01-29T03:13:44.908Z,19.70
2023-01-29T03:16:17.532Z,20.13
2023-01-29T03:18:52.054Z,18.80
2023-01-29T03:21:50.076Z,19.63
2023-01-29T03:25:01.547Z,18.35
2023-01-29T03:27:58.498Z,18.45
2023-01-29T03:30:49.207Z,17.50
2023-01-29T03:33:20.231Z,16.30
2023-01-29T03:36:00.204Z,17.48
2023-01-29T03:38:33.240Z,18.42
2023-01-29T03:43:41.155Z,17.25
2023-01-29T03:46:33.168Z,19.02
2023-01-29T03:49:21.922Z,17.80
2023-01-29T03:52:09.661Z,19.85
2023-01-29T03:54:40.272Z,18.85
2023-01-29T03:57:30.119Z,17.88
2023-01-29T04:00:06.940Z,17.25
2023-01-29T04:02:50.162Z,17.30
2023-01-29T04:05:23.085Z,17.52
2023-01-29T04:07:58.395Z,17.08
2023-01-29T04:10:29.465Z,16.33
2023-01-29T04:13:03.271Z,17.15
2023-01-29T04:15:36.592Z,17.05
2023-01-29T04:18:05.585Z,17.08
2023-01-29T04:20:34.424Z,17.80
2023-01-29T04:23:03.816Z,16.27
2023-01-29T04:25:44.189Z,16.05
2023-01-29T04:28:24.415Z,16.30
2023-01-29T04:31:01.156Z,17.73
2023-01-29T04:33:59.569Z,16.65
2023-01-29T04:36:37.751Z,17.73
2023-01-29T04:39:28.190Z,17.35
2023-01-29T04:42:03.221Z,15.63
2023-01-29T04:44:33.741Z,17.27
2023-01-29T04:47:23.648Z,17.05
2023-01-29T04:50:29.662Z,16.33
2023-01-29T04:53:19.693Z,17.20
2023-01-29T04:55:52.281Z,17.92
2023-01-29T04:58:40.990Z,17.70
2023-01-29T05:01:15.326Z,16.38
2023-01-29T05:03:50.428Z,17.17
2023-01-29T05:06:21.833Z,17.70
2023-01-29T05:08:52.524Z,28.80
2023-01-29T05:11:22.389Z,19.85
2023-01-29T05:13:51.495Z,18.48
2023-01-29T05:16:25.140Z,18.58
2023-01-29T05:18:54.888Z,16.65
2023-01-29T05:21:24.509Z,17.10
2023-01-29T05:24:11.724Z,16.92
2023-01-29T05:27:00.165Z,16.98
2023-01-29T05:29:29.116Z,16.88
2023-01-29T05:31:58.005Z,16.70
2023-01-29T05:34:26.652Z,15.80
2023-01-29T05:36:55.390Z,15.07
2023-01-29T05:39:24.175Z,16.45
2023-01-29T05:41:52.884Z,14.98
2023-01-29T05:44:21.738Z,15.13
2023-01-29T05:46:52.079Z,15.43
2023-01-29T05:49:21.715Z,16.95
2023-01-29T05:51:50.385Z,14.75
2023-01-29T05:54:19.066Z,15.60
2023-01-29T05:56:47.860Z,14.35
2023-01-29T05:59:17.876Z,15.77
2023-01-29T06:01:46.658Z,14.95
2023-01-29T06:04:15.531Z,14.70
2023-01-29T06:06:44.223Z,14.52
2023-01-29T06:09:13.588Z,14.45
2023-01-29T06:11:42.382Z,15.82
2023-01-29T06:14:11.112Z,15.73
2023-01-29T06:16:39.782Z,15.00
2023-01-29T06:19:08.495Z,15.48
2023-01-29T06:21:37.243Z,15.10
2023-01-29T06:24:06.225Z,15.73
2023-01-29T06:26:35.264Z,14.65
2023-01-29T06:29:03.986Z,16.70
2023-01-29T06:31:38.917Z,14.70
2023-01-29T06:34:09.657Z,15.45
2023-01-29T06:36:38.450Z,14.93
2023-01-29T06:39:07.213Z,15.05
2023-01-29T06:41:36.438Z,15.88
2023-01-29T06:44:05.333Z,14.95
2023-01-29T06:46:34.065Z,16.73
2023-01-29T06:49:02.764Z,17.23
2023-01-29T06:51:31.638Z,15.00
2023-01-29T06:54:00.323Z,15.98
2023-01-29T06:56:29.078Z,16.30
2023-01-29T06:58:57.828Z,14.10
2023-01-29T07:01:35.644Z,14.18
2023-01-29T07:04:05.222Z,13.90
2023-01-29T07:06:34.421Z,14.40
2023-01-29T07:09:03.562Z,14.30
2023-01-29T07:11:32.976Z,14.52
2023-01-29T07:14:01.647Z,14.68
2023-01-29T07:16:30.439Z,14.27
2023-01-29T07:18:59.160Z,14.65
2023-01-29T07:21:27.825Z,14.88
2023-01-29T07:23:56.637Z,15.27
2023-01-29T07:26:25.348Z,14.05
2023-01-29T07:28:54.092Z,15.02
2023-01-29T07:31:24.141Z,14.90
2023-01-29T07:33:52.865Z,15.15
2023-01-29T07:36:21.477Z,14.35
2023-01-29T07:38:52.056Z,15.38
2023-01-29T07:41:20.911Z,15.32
2023-01-29T07:43:49.976Z,14.90
2023-01-29T07:46:18.639Z,15.50
2023-01-29T07:48:47.464Z,15.27
2023-01-29T07:51:18.025Z,15.32
2023-01-29T07:53:46.837Z,15.25
2023-01-29T07:56:15.588Z,18.02
2023-01-29T07:58:44.341Z,16.02
2023-01-29T08:01:13.107Z,15.35
2023-01-29T08:03:41.919Z,15.20
2023-01-29T08:06:10.680Z,15.05
2023-01-29T08:08:39.395Z,15.73
2023-01-29T08:11:08.332Z,15.77
2023-01-29T08:13:37.034Z,15.70
2023-01-29T08:16:06.460Z,14.75
2023-01-29T08:18:35.201Z,15.77
2023-01-29T08:21:05.005Z,14.43
2023-01-29T08:23:33.737Z,15.90
2023-01-29T08:26:04.617Z,16.10
2023-01-29T08:28:33.592Z,15.35
2023-01-29T08:31:02.814Z,15.15
2023-01-29T08:33:39.054Z,14.55
2023-01-29T08:36:09.432Z,15.18
2023-01-29T08:38:38.557Z,15.65
2023-01-29T08:41:07.955Z,14.10
2023-01-29T08:43:40.251Z,14.93
2023-01-29T08:46:09.658Z,14.30
2023-01-29T08:48:38.466Z,14.07
2023-01-29T08:51:07.368Z,14.15
2023-01-29T08:53:36.200Z,14.77
2023-01-29T08:56:04.988Z,13.70
2023-01-29T08:58:33.811Z,14.77
2023-01-29T09:01:17.929Z,15.35
2023-01-29T09:03:47.431Z,15.30
2023-01-29T09:06:16.460Z,15.75
2023-01-29T09:08:45.294Z,15.23
2023-01-29T09:11:14.206Z,15.65
2023-01-29T09:13:42.899Z,15.07
2023-01-29T09:16:12.031Z,14.32
2023-01-29T09:18:40.859Z,14.38
2023-01-29T09:21:09.718Z,14.45
2023-01-29T09:23:39.136Z,13.80
2023-01-29T09:26:10.399Z,14.57
2023-01-29T09:28:39.953Z,13.27
2023-01-29T09:31:08.678Z,14.25
2023-01-29T09:33:37.878Z,15.13
2023-01-29T09:36:07.109Z,14.77
2023-01-29T09:38:35.882Z,14.75
2023-01-29T09:41:11.354Z,15.43
2023-01-29T09:43:54.594Z,14.65
2023-01-29T09:49:05.503Z,14.77
2023-01-29T09:51:48.140Z,15.75
2023-01-29T09:54:24.356Z,15.65
2023-01-29T09:56:57.641Z,15.05
2023-01-29T09:59:31.087Z,16.05
2023-01-29T10:02:08.358Z,15.95
2023-01-29T10:04:38.105Z,16.50
2023-01-29T10:07:17.414Z,15.43
2023-01-29T10:10:07.696Z,15.73
2023-01-29T10:13:00.633Z,16.50
2023-01-29T10:15:47.790Z,15.90
2023-01-29T10:18:58.054Z,17.15
2023-01-29T10:21:47.796Z,15.38
2023-01-29T10:24:18.630Z,16.00
2023-01-29T10:26:47.581Z,16.50
2023-01-29T10:29:22.957Z,15.65
2023-01-29T10:31:58.324Z,15.50
2023-01-29T10:34:36.554Z,15.57
2023-01-29T10:37:25.324Z,15.65
2023-01-29T10:42:54.411Z,17.10
2023-01-29T10:45:36.076Z,17.90
2023-01-29T10:48:25.145Z,18.58
2023-01-29T10:51:15.865Z,18.42
2023-01-29T10:54:05.487Z,19.05
2023-01-29T10:56:37.413Z,19.48
2023-01-29T11:02:20.749Z,17.38
2023-01-29T11:04:51.488Z,19.83
2023-01-29T11:07:26.141Z,18.17
2023-01-29T11:10:08.901Z,19.83
2023-01-29T11:12:42.928Z,19.42
2023-01-29T11:15:35.591Z,24.63
2023-01-29T11:18:09.456Z,22.13
2023-01-29T11:20:38.871Z,22.77
2023-01-29T11:23:07.792Z,23.13
2023-01-29T11:25:37.635Z,23.73
2023-01-29T11:28:07.385Z,22.02
2023-01-29T11:30:40.975Z,23.23
2023-01-29T11:33:13.990Z,22.33
2023-01-29T11:38:23.351Z,21.95
2023-01-29T11:40:52.852Z,20.92
2023-01-29T11:43:33.288Z,22.45
2023-01-29T11:46:07.200Z,22.08
2023-01-29T11:48:46.514Z,21.90
2023-01-29T11:51:25.539Z,21.83
2023-01-29T11:53:59.763Z,21.83
2023-01-29T11:56:30.470Z,22.00
2023-01-29T11:59:02.821Z,21.20
2023-01-29T12:01:35.497Z,22.45
2023-01-29T12:04:22.391Z,22.15
2023-01-29T12:06:54.240Z,21.75
2023-01-29T12:09:29.230Z,22.33
2023-01-29T12:12:17.494Z,22.17
2023-01-29T12:14:46.493Z,22.25
2023-01-29T12:17:27.370Z,23.15
2023-01-29T12:20:02.220Z,22.77
2023-01-29T12:22:55.203Z,24.25
2023-01-29T12:25:28.580Z,23.42
2023-01-29T12:28:09.465Z,26.23
2023-01-29T12:30:39.417Z,25.02
2023-01-29T12:33:43.673Z,25.02
2023-01-29T12:36:22.940Z,24.00
2023-01-29T12:38:51.915Z,25.10
2023-01-29T12:41:46.132Z,26.13
2023-01-29T12:44:20.702Z,25.65
2023-01-29T12:46:55.187Z,29.88
2023-01-29T12:49:29.783Z,28.95
2023-01-29T12:52:02.723Z,29.23
2023-01-29T12:54:54.854Z,30.67
2023-01-29T12:57:38.485Z,32.67
2023-01-29T13:00:19.657Z,30.95
2023-01-29T13:03:27.659Z,31.30
2023-01-29T13:06:04.248Z,30.92
2023-01-29T13:08:40.428Z,29.23
2023-01-29T13:11:16.130Z,31.02
2023-01-29T13:13:58.030Z,27.90
2023-01-29T13:16:34.836Z,28.40
2023-01-29T13:19:08.756Z,29.08
2023-01-29T13:21:43.505Z,28.00
2023-01-29T13:24:17.494Z,30.13
2023-01-29T13:26:49.633Z,30.00
2023-01-29T13:29:26.282Z,29.23
2023-01-29T13:32:05.016Z,28.00
2023-01-29T13:34:36.487Z,27.38
2023-01-29T13:37:12.957Z,27.83
2023-01-29T13:39:49.916Z,27.40
2023-01-29T13:42:23.291Z,26.92
2023-01-29T13:44:57.101Z,26.90
2023-01-29T13:47:31.529Z,26.50
2023-01-29T13:50:07.421Z,28.55
2023-01-29T13:52:38.672Z,29.08
2023-01-29T13:55:22.691Z,28.88
2023-01-29T13:57:55.947Z,28.92
2023-01-29T14:00:31.911Z,28.33
2023-01-29T14:03:05.713Z,27.98
2023-01-29T14:05:40.594Z,30.52
2023-01-29T14:08:11.420Z,30.23
2023-01-29T14:10:40.392Z,29.35
2023-01-29T14:13:25.735Z,31.15
2023-01-29T14:15:59.121Z,31.40
2023-01-29T14:18:30.609Z,30.73
2023-01-29T14:21:03.911Z,33.00
2023-01-29T14:23:42.468Z,34.15
2023-01-29T14:26:31.593Z,35.38
2023-01-29T14:29:02.588Z,35.53
2023-01-29T14:31:52.166Z,32.15
2023-01-29T14:34:22.038Z,31.50
2023-01-29T14:36:56.483Z,30.85
2023-01-29T14:39:46.341Z,29.40
2023-01-29T14:42:37.006Z,28.48
2023-01-29T14:45:44.769Z,28.80
2023-01-29T14:48:17.161Z,27.85
2023-01-29T14:50:50.624Z,26.88
2023-01-29T14:53:24.468Z,29.52
2023-01-29T14:55:57.872Z,28.25
2023-01-29T14:58:34.404Z,27.90
2023-01-29T15:01:06.689Z,29.67
2023-01-29T15:03:42.945Z,27.60
2023-01-29T15:06:19.195Z,29.20
2023-01-29T15:08:56.661Z,28.27
2023-01-29T15:11:44.415Z,27.85
2023-01-29T15:14:25.751Z,29.15
2023-01-29T15:17:30.403Z,29.05
2023-01-29T15:19:59.365Z,28.38
2023-01-29T15:22:30.197Z,26.92
2023-01-29T15:25:21.615Z,25.95
2023-01-29T15:27:51.425Z,27.42
2023-01-29T15:30:27.778Z,26.98
2023-01-29T15:32:57.926Z,25.10
2023-01-29T15:35:34.609Z,25.92
2023-01-29T15:38:06.228Z,26.70
2023-01-29T15:40:35.891Z,25.38
2023-01-29T15:43:19.140Z,24.23
2023-01-29T15:45:48.703Z,24.33
2023-01-29T15:48:23.744Z,24.80
2023-01-29T15:50:56.428Z,22.85
2023-01-29T15:53:32.351Z,24.35
2023-01-29T15:56:02.336Z,24.23
2023-01-29T15:58:33.633Z,23.90
2023-01-29T16:01:03.373Z,23.92
2023-01-29T16:03:34.987Z,22.52
2023-01-29T16:06:04.052Z,23.85
2023-01-29T16:08:34.407Z,24.00
2023-01-29T16:11:05.730Z,22.55
2023-01-29T16:13:40.788Z,23.02
2023-01-29T16:16:29.399Z,24.00
2023-01-29T16:19:00.870Z,22.27
2023-01-29T16:21:31.069Z,23.42
2023-01-29T16:24:08.698Z,24.13
2023-01-29T16:26:41.190Z,21.65
2023-01-29T16:29:20.759Z,23.88
2023-01-29T16:31:52.454Z,22.90
2023-01-29T16:34:43.165Z,22.15
2023-01-29T16:37:39.678Z,22.23
2023-01-29T16:40:34.169Z,22.63
2023-01-29T16:43:26.218Z,21.67
2023-01-29T16:46:07.410Z,22.45
2023-01-29T16:48:41.077Z,22.52
2023-01-29T16:51:24.987Z,23.98
2023-01-29T16:54:01.797Z,23.25
2023-01-29T16:56:33.769Z,23.45
2023-01-29T17:02:40.077Z,24.83
2023-01-29T17:05:16.471Z,23.90
2023-01-29T17:07:47.819Z,24.30
2023-01-29T17:10:24.264Z,23.55
2023-01-29T17:13:16.605Z,23.45
2023-01-29T17:15:48.096Z,25.15
2023-01-29T17:18:21.388Z,25.35
2023-01-29T17:20:50.703Z,25.77
2023-01-29T17:23:19.929Z,27.33
2023-01-29T17:25:50.187Z,27.00
2023-01-29T17:28:20.061Z,25.25
2023-01-29T17:31:04.895Z,26.90
2023-01-29T17:33:35.277Z,26.95
2023-01-29T17:36:04.039Z,25.23
2023-01-29T17:38:32.871Z,27.70
2023-01-29T17:41:03.671Z,27.55
2023-01-29T17:43:32.578Z,29.50
2023-01-29T17:46:01.506Z,28.40
2023-01-29T17:48:31.753Z,27.27
2023-01-29T17:51:05.639Z,30.55
2023-01-29T17:53:45.329Z,27.35
2023-01-29T17:56:18.784Z,27.67
2023-01-29T18:01:16.570Z,28.60
2023-01-29T18:03:45.423Z,27.58
2023-01-29T18:06:23.606Z,28.02
2023-01-29T18:08:52.497Z,28.88
2023-01-29T18:11:21.450Z,28.08
2023-01-29T18:13:50.227Z,28.60
2023-01-29T18:16:19.725Z,29.23
2023-01-29T18:18:48.707Z,28.63
2023-01-29T18:21:17.842Z,28.63
2023-01-29T18:23:46.759Z,29.17
2023-01-29T18:26:18.560Z,29.33
2023-01-29T18:28:47.259Z,27.83
2023-01-29T18:31:16.079Z,27.83
2023-01-29T18:33:46.352Z,29.80
2023-01-29T18:36:15.385Z,29.45
2023-01-29T18:38:44.397Z,28.50
2023-01-29T18:41:13.507Z,29.67
2023-01-29T18:43:44.142Z,30.08
2023-01-29T18:46:13.229Z,30.45
2023-01-29T18:48:42.909Z,30.35
2023-01-29T18:51:11.972Z,30.55
2023-01-29T18:53:40.954Z,30.55
2023-01-29T18:56:11.897Z,32.53
2023-01-29T18:58:41.242Z,36.30
2023-01-29T19:01:13.002Z,35.15
2023-01-29T19:03:43.090Z,36.45
2023-01-29T19:06:13.272Z,35.17
2023-01-29T19:08:43.948Z,35.13
2023-01-29T19:11:13.617Z,34.25
2023-01-29T19:13:43.715Z,34.47
2023-01-29T19:16:14.399Z,32.30
2023-01-29T19:18:43.348Z,30.15
2023-01-29T19:21:14.751Z,30.00
2023-01-29T19:23:44.816Z,29.92
2023-01-29T19:26:23.416Z,29.60
2023-01-29T19:28:52.161Z,29.35
2023-01-29T19:31:21.033Z,28.25
2023-01-29T19:33:49.969Z,28.95
2023-01-29T19:36:18.620Z,28.73
2023-01-29T19:38:47.241Z,27.80
2023-01-29T19:41:15.902Z,28.05
2023-01-29T19:43:44.677Z,26.38
2023-01-29T19:46:13.868Z,25.30
2023-01-29T19:48:42.712Z,26.27
2023-01-29T19:51:13.156Z,26.75
2023-01-29T19:53:45.223Z,25.73
2023-01-29T19:56:16.410Z,26.13
2023-01-29T19:58:46.247Z,26.83
2023-01-29T20:01:21.131Z,26.60
2023-01-29T20:03:51.111Z,25.75
2023-01-29T20:06:23.882Z,26.42
2023-01-29T20:08:52.910Z,26.85
2023-01-29T20:11:23.471Z,27.25
2023-01-29T20:13:53.542Z,28.02
2023-01-29T20:16:23.218Z,29.67
2023-01-29T20:18:52.233Z,27.95
2023-01-29T20:21:23.135Z,26.48
2023-01-29T20:23:52.674Z,26.65
2023-01-29T20:26:22.892Z,28.75
2023-01-29T20:28:51.893Z,27.00
2023-01-29T20:31:50.277Z,25.90
2023-01-29T20:34:22.743Z,28.98
2023-01-29T20:36:51.555Z,27.63
2023-01-29T20:39:20.385Z,28.20
2023-01-29T20:41:49.214Z,28.50
2023-01-29T20:44:17.992Z,28.00
2023-01-29T20:46:47.193Z,28.25
2023-01-29T20:49:18.152Z,28.77
2023-01-29T20:55:08.771Z,26.45
2023-01-29T20:57:37.501Z,25.65
2023-01-29T21:00:08.212Z,25.90
2023-01-29T21:02:37.105Z,26.42
2023-01-29T21:05:07.481Z,25.50
2023-01-29T21:07:37.088Z,25.40
2023-01-29T21:10:06.002Z,25.63
2023-01-29T21:12:34.850Z,25.58
2023-01-29T21:15:03.589Z,24.52
2023-01-29T21:17:32.289Z,24.35
2023-01-29T21:20:01.041Z,26.38
2023-01-29T21:22:29.754Z,25.95
2023-01-29T21:24:58.493Z,25.33
2023-01-29T21:27:27.548Z,23.88
2023-01-29T21:29:56.246Z,23.35
2023-01-29T21:32:25.022Z,23.67
2023-01-29T21:34:53.737Z,24.02
2023-01-29T21:37:22.427Z,23.23
2023-01-29T21:39:51.162Z,23.90
2023-01-29T21:45:24.726Z,23.17
2023-01-29T21:47:53.513Z,21.70
2023-01-29T21:50:22.269Z,23.05
2023-01-29T21:52:50.976Z,22.15
2023-01-29T21:55:19.710Z,23.05
2023-01-29T21:57:49.718Z,22.17
2023-01-29T22:03:09.959Z,23.92
2023-01-29T22:05:40.581Z,24.60
2023-01-29T22:08:09.326Z,24.73
2023-01-29T22:10:38.609Z,26.60
2023-01-29T22:13:09.522Z,27.77
2023-01-29T22:15:38.135Z,29.00
2023-01-29T22:18:06.914Z,30.88
2023-01-29T22:20:37.256Z,31.83
2023-01-29T22:23:08.071Z,33.03
2023-01-29T22:25:36.766Z,33.45
2023-01-29T22:28:05.852Z,31.92
2023-01-29T22:30:34.721Z,33.78
2023-01-29T22:33:03.403Z,37.47
2023-01-29T22:35:32.316Z,34.90
2023-01-29T22:38:01.106Z,34.97
2023-01-29T22:40:29.894Z,35.90
2023-01-29T22:42:59.293Z,35.65
2023-01-29T22:45:29.073Z,36.38
2023-01-29T22:47:58.578Z,35.20
2023-01-29T22:50:27.163Z,36.47
2023-01-29T22:52:55.960Z,34.25
2023-01-29T22:55:24.747Z,34.20
2023-01-29T22:57:54.424Z,35.03
2023-01-29T23:00:23.465Z,37.28
2023-01-29T23:02:53.779Z,38.55
2023-01-29T23:05:22.588Z,36.28
2023-01-29T23:07:51.436Z,38.72
2023-01-29T23:10:20.311Z,36.47
2023-01-29T23:12:49.003Z,36.85
2023-01-29T23:15:17.847Z,37.20
2023-01-29T23:17:46.509Z,35.45
2023-01-29T23:20:15.489Z,34.97
2023-01-29T23:22:44.276Z,37.92
2023-01-29T23:25:13.063Z,33.40
2023-01-29T23:27:41.816Z,36.95
2023-01-29T23:30:11.312Z,35.63
2023-01-29T23:32:40.096Z,36.15
2023-01-29T23:35:09.357Z,38.65
2023-01-29T23:37:38.044Z,38.33
2023-01-29T23:40:07.258Z,38.72
2023-01-29T23:42:35.914Z,38.35
2023-01-29T23:45:04.743Z,38.63
2023-01-29T23:47:33.569Z,38.85
2023-01-29T23:50:05.603Z,39.53
2023-01-29T23:52:34.431Z,38.28
2023-01-29T23:55:03.091Z,37.58
2023-01-29T23:57:31.786Z,39.80
